sensor_id;sensor_type;location;lat;lon;timestamp;P1;durP1;ratioP1;P2;durP2;ratioP2
70253;SDS011;57649;42.968;1.608;2023-04-03T00:01:12;1.52;;;0.70;;
70253;SDS011;57649;42.968;1.608;2023-04-03T00:03:37;1.42;;;0.80;;
70253;SDS011;57649;42.968;1.608;2023-04-03T00:06:03;1.10;;;0.70;;
70253;SDS011;57649;42.968;1.608;2023-04-03T00:08:30;0.98;;;0.60;;
70253;SDS011;57649;42.968;1.608;2023-04-03T00:10:57;2.15;;;0.80;;
70253;SDS011;57649;42.968;1.608;2023-04-03T00:13:23;1.40;;;0.68;;
70253;SDS011;57649;42.968;1.608;2023-04-03T00:15:49;1.15;;;0.50;;
70253;SDS011;57649;42.968;1.608;2023-04-03T00:18:14;2.08;;;0.70;;
70253;SDS011;57649;42.968;1.608;2023-04-03T00:20:40;1.30;;;0.77;;
70253;SDS011;57649;42.968;1.608;2023-04-03T00:23:05;1.00;;;0.70;;
70253;SDS011;57649;42.968;1.608;2023-04-03T00:25:31;2.65;;;0.65;;
70253;SDS011;57649;42.968;1.608;2023-04-03T00:27:56;1.02;;;0.70;;
70253;SDS011;57649;42.968;1.608;2023-04-03T00:30:22;1.10;;;0.70;;
70253;SDS011;57649;42.968;1.608;2023-04-03T00:32:48;2.28;;;0.80;;
70253;SDS011;57649;42.968;1.608;2023-04-03T00:35:14;1.25;;;0.80;;
70253;SDS011;57649;42.968;1.608;2023-04-03T00:37:41;0.90;;;0.70;;
70253;SDS011;57649;42.968;1.608;2023-04-03T00:40:07;1.60;;;0.98;;
70253;SDS011;57649;42.968;1.608;2023-04-03T00:42:33;1.92;;;1.02;;
70253;SDS011;57649;42.968;1.608;2023-04-03T00:47:25;1.23;;;0.98;;
70253;SDS011;57649;42.968;1.608;2023-04-03T00:49:51;1.52;;;1.02;;
70253;SDS011;57649;42.968;1.608;2023-04-03T00:52:19;1.73;;;1.00;;
70253;SDS011;57649;42.968;1.608;2023-04-03T00:54:49;3.10;;;1.08;;
70253;SDS011;57649;42.968;1.608;2023-04-03T00:57:17;1.70;;;1.00;;
70253;SDS011;57649;42.968;1.608;2023-04-03T00:59:44;1.55;;;1.00;;
70253;SDS011;57649;42.968;1.608;2023-04-03T01:02:14;2.50;;;0.82;;
70253;SDS011;57649;42.968;1.608;2023-04-03T01:04:41;2.58;;;1.00;;
70253;SDS011;57649;42.968;1.608;2023-04-03T01:07:15;4.47;;;1.00;;
70253;SDS011;57649;42.968;1.608;2023-04-03T01:09:45;1.42;;;0.90;;
70253;SDS011;57649;42.968;1.608;2023-04-03T01:14:42;1.67;;;0.95;;
70253;SDS011;57649;42.968;1.608;2023-04-03T01:20:42;1.20;;;0.98;;
70253;SDS011;57649;42.968;1.608;2023-04-03T01:22:53;2.28;;;1.05;;
70253;SDS011;57649;42.968;1.608;2023-04-03T01:25:34;3.78;;;1.40;;
70253;SDS011;57649;42.968;1.608;2023-04-03T01:28:01;3.30;;;1.02;;
70253;SDS011;57649;42.968;1.608;2023-04-03T01:30:30;2.08;;;1.08;;
70253;SDS011;57649;42.968;1.608;2023-04-03T01:32:59;1.33;;;0.80;;
70253;SDS011;57649;42.968;1.608;2023-04-03T01:35:24;1.30;;;1.10;;
70253;SDS011;57649;42.968;1.608;2023-04-03T01:37:50;2.63;;;1.20;;
70253;SDS011;57649;42.968;1.608;2023-04-03T01:40:15;1.83;;;0.98;;
70253;SDS011;57649;42.968;1.608;2023-04-03T01:42:41;1.98;;;0.90;;
70253;SDS011;57649;42.968;1.608;2023-04-03T01:45:06;2.05;;;1.10;;
70253;SDS011;57649;42.968;1.608;2023-04-03T01:47:32;1.48;;;1.00;;
70253;SDS011;57649;42.968;1.608;2023-04-03T01:49:58;3.67;;;1.20;;
70253;SDS011;57649;42.968;1.608;2023-04-03T01:52:23;2.33;;;1.00;;
70253;SDS011;57649;42.968;1.608;2023-04-03T01:54:48;1.92;;;1.30;;
70253;SDS011;57649;42.968;1.608;2023-04-03T01:57:14;1.92;;;1.30;;
70253;SDS011;57649;42.968;1.608;2023-04-03T01:59:40;3.28;;;1.40;;
70253;SDS011;57649;42.968;1.608;2023-04-03T02:02:06;1.90;;;1.30;;
70253;SDS011;57649;42.968;1.608;2023-04-03T02:04:31;2.75;;;1.30;;
70253;SDS011;57649;42.968;1.608;2023-04-03T02:06:56;2.78;;;1.40;;
70253;SDS011;57649;42.968;1.608;2023-04-03T02:09:22;1.65;;;1.17;;
70253;SDS011;57649;42.968;1.608;2023-04-03T02:11:47;2.47;;;1.55;;
70253;SDS011;57649;42.968;1.608;2023-04-03T02:14:13;2.50;;;1.52;;
70253;SDS011;57649;42.968;1.608;2023-04-03T02:16:38;3.22;;;1.30;;
70253;SDS011;57649;42.968;1.608;2023-04-03T02:19:03;4.13;;;1.55;;
70253;SDS011;57649;42.968;1.608;2023-04-03T02:21:29;1.92;;;1.15;;
70253;SDS011;57649;42.968;1.608;2023-04-03T02:23:54;2.95;;;1.30;;
70253;SDS011;57649;42.968;1.608;2023-04-03T02:26:20;2.15;;;1.30;;
70253;SDS011;57649;42.968;1.608;2023-04-03T02:28:46;2.13;;;1.05;;
70253;SDS011;57649;42.968;1.608;2023-04-03T02:31:11;2.60;;;1.30;;
70253;SDS011;57649;42.968;1.608;2023-04-03T02:33:37;2.78;;;1.50;;
70253;SDS011;57649;42.968;1.608;2023-04-03T02:36:03;2.78;;;1.50;;
70253;SDS011;57649;42.968;1.608;2023-04-03T02:38:30;2.47;;;1.65;;
70253;SDS011;57649;42.968;1.608;2023-04-03T02:40:59;1.40;;;1.13;;
70253;SDS011;57649;42.968;1.608;2023-04-03T02:43:31;1.63;;;1.27;;
70253;SDS011;57649;42.968;1.608;2023-04-03T02:45:56;1.80;;;1.25;;
70253;SDS011;57649;42.968;1.608;2023-04-03T02:48:22;2.00;;;1.30;;
70253;SDS011;57649;42.968;1.608;2023-04-03T02:50:48;2.30;;;1.23;;
70253;SDS011;57649;42.968;1.608;2023-04-03T02:53:13;2.80;;;1.15;;
70253;SDS011;57649;42.968;1.608;2023-04-03T02:55:40;2.47;;;1.50;;
70253;SDS011;57649;42.968;1.608;2023-04-03T02:58:05;2.60;;;1.58;;
70253;SDS011;57649;42.968;1.608;2023-04-03T03:00:31;3.25;;;1.50;;
70253;SDS011;57649;42.968;1.608;2023-04-03T03:02:56;2.85;;;1.58;;
70253;SDS011;57649;42.968;1.608;2023-04-03T03:05:21;4.07;;;1.95;;
70253;SDS011;57649;42.968;1.608;2023-04-03T03:07:47;3.45;;;1.50;;
70253;SDS011;57649;42.968;1.608;2023-04-03T03:10:13;3.50;;;1.33;;
70253;SDS011;57649;42.968;1.608;2023-04-03T03:12:38;4.45;;;1.85;;
70253;SDS011;57649;42.968;1.608;2023-04-03T03:15:05;4.45;;;2.88;;
70253;SDS011;57649;42.968;1.608;2023-04-03T03:17:32;2.55;;;1.88;;
70253;SDS011;57649;42.968;1.608;2023-04-03T03:19:57;2.13;;;1.25;;
70253;SDS011;57649;42.968;1.608;2023-04-03T03:22:22;1.00;;;0.75;;
70253;SDS011;57649;42.968;1.608;2023-04-03T03:24:48;1.13;;;0.75;;
70253;SDS011;57649;42.968;1.608;2023-04-03T03:27:13;1.25;;;0.60;;
70253;SDS011;57649;42.968;1.608;2023-04-03T03:29:41;0.77;;;0.70;;
70253;SDS011;57649;42.968;1.608;2023-04-03T03:32:06;1.25;;;0.60;;
70253;SDS011;57649;42.968;1.608;2023-04-03T03:34:32;0.70;;;0.70;;
70253;SDS011;57649;42.968;1.608;2023-04-03T03:36:57;0.75;;;0.70;;
70253;SDS011;57649;42.968;1.608;2023-04-03T03:39:22;0.75;;;0.57;;
70253;SDS011;57649;42.968;1.608;2023-04-03T03:41:48;0.57;;;0.55;;
70253;SDS011;57649;42.968;1.608;2023-04-03T03:44:14;1.50;;;0.68;;
70253;SDS011;57649;42.968;1.608;2023-04-03T03:46:40;1.75;;;0.80;;
70253;SDS011;57649;42.968;1.608;2023-04-03T03:49:05;1.25;;;0.70;;
70253;SDS011;57649;42.968;1.608;2023-04-03T03:51:31;1.55;;;0.95;;
70253;SDS011;57649;42.968;1.608;2023-04-03T03:53:56;1.60;;;0.70;;
70253;SDS011;57649;42.968;1.608;2023-04-03T03:56:21;0.77;;;0.70;;
70253;SDS011;57649;42.968;1.608;2023-04-03T03:58:47;0.98;;;0.70;;
70253;SDS011;57649;42.968;1.608;2023-04-03T04:01:14;2.15;;;0.90;;
70253;SDS011;57649;42.968;1.608;2023-04-03T04:03:41;1.45;;;0.80;;
70253;SDS011;57649;42.968;1.608;2023-04-03T04:06:07;1.13;;;0.80;;
70253;SDS011;57649;42.968;1.608;2023-04-03T04:08:32;1.75;;;1.10;;
70253;SDS011;57649;42.968;1.608;2023-04-03T04:10:57;2.55;;;1.13;;
70253;SDS011;57649;42.968;1.608;2023-04-03T04:13:23;2.35;;;0.88;;
70253;SDS011;57649;42.968;1.608;2023-04-03T04:15:48;1.30;;;1.00;;
70253;SDS011;57649;42.968;1.608;2023-04-03T04:18:14;3.17;;;0.88;;
70253;SDS011;57649;42.968;1.608;2023-04-03T04:20:39;2.15;;;1.02;;
70253;SDS011;57649;42.968;1.608;2023-04-03T04:23:05;3.25;;;1.35;;
70253;SDS011;57649;42.968;1.608;2023-04-03T04:25:30;2.85;;;1.08;;
70253;SDS011;57649;42.968;1.608;2023-04-03T04:27:56;4.85;;;1.25;;
70253;SDS011;57649;42.968;1.608;2023-04-03T04:30:21;2.95;;;1.13;;
70253;SDS011;57649;42.968;1.608;2023-04-03T04:32:46;3.17;;;1.17;;
70253;SDS011;57649;42.968;1.608;2023-04-03T04:35:12;2.10;;;1.10;;
70253;SDS011;57649;42.968;1.608;2023-04-03T04:37:37;7.72;;;1.33;;
70253;SDS011;57649;42.968;1.608;2023-04-03T04:40:03;1.92;;;1.23;;
70253;SDS011;57649;42.968;1.608;2023-04-03T04:42:28;2.08;;;1.35;;
70253;SDS011;57649;42.968;1.608;2023-04-03T04:44:54;2.20;;;1.15;;
70253;SDS011;57649;42.968;1.608;2023-04-03T04:47:19;2.95;;;1.38;;
70253;SDS011;57649;42.968;1.608;2023-04-03T04:49:45;1.83;;;1.48;;
70253;SDS011;57649;42.968;1.608;2023-04-03T04:52:12;3.22;;;1.60;;
70253;SDS011;57649;42.968;1.608;2023-04-03T04:54:37;2.15;;;1.40;;
70253;SDS011;57649;42.968;1.608;2023-04-03T04:57:03;4.60;;;1.63;;
70253;SDS011;57649;42.968;1.608;2023-04-03T04:59:28;2.40;;;1.55;;
70253;SDS011;57649;42.968;1.608;2023-04-03T05:01:54;6.30;;;1.80;;
70253;SDS011;57649;42.968;1.608;2023-04-03T05:04:19;3.30;;;1.70;;
70253;SDS011;57649;42.968;1.608;2023-04-03T05:06:45;6.35;;;1.98;;
70253;SDS011;57649;42.968;1.608;2023-04-03T05:09:10;4.63;;;1.60;;
70253;SDS011;57649;42.968;1.608;2023-04-03T05:11:36;2.30;;;1.38;;
70253;SDS011;57649;42.968;1.608;2023-04-03T05:14:01;3.22;;;1.55;;
70253;SDS011;57649;42.968;1.608;2023-04-03T05:16:27;3.42;;;1.55;;
70253;SDS011;57649;42.968;1.608;2023-04-03T05:18:52;2.80;;;1.30;;
70253;SDS011;57649;42.968;1.608;2023-04-03T05:21:18;4.05;;;1.50;;
70253;SDS011;57649;42.968;1.608;2023-04-03T05:23:43;2.50;;;1.30;;
70253;SDS011;57649;42.968;1.608;2023-04-03T05:26:10;3.22;;;1.60;;
70253;SDS011;57649;42.968;1.608;2023-04-03T05:28:35;5.30;;;1.70;;
70253;SDS011;57649;42.968;1.608;2023-04-03T05:31:01;2.83;;;1.40;;
70253;SDS011;57649;42.968;1.608;2023-04-03T05:33:27;3.13;;;1.45;;
70253;SDS011;57649;42.968;1.608;2023-04-03T05:35:53;4.18;;;2.10;;
70253;SDS011;57649;42.968;1.608;2023-04-03T05:38:19;4.18;;;2.10;;
70253;SDS011;57649;42.968;1.608;2023-04-03T05:40:45;5.57;;;3.88;;
70253;SDS011;57649;42.968;1.608;2023-04-03T05:43:11;1.73;;;1.30;;
70253;SDS011;57649;42.968;1.608;2023-04-03T05:45:36;6.30;;;1.90;;
70253;SDS011;57649;42.968;1.608;2023-04-03T05:48:01;3.65;;;1.75;;
70253;SDS011;57649;42.968;1.608;2023-04-03T05:50:27;2.05;;;1.10;;
70253;SDS011;57649;42.968;1.608;2023-04-03T05:52:53;4.20;;;2.60;;
70253;SDS011;57649;42.968;1.608;2023-04-03T05:55:21;2.92;;;1.58;;
70253;SDS011;57649;42.968;1.608;2023-04-03T05:57:46;3.83;;;2.60;;
70253;SDS011;57649;42.968;1.608;2023-04-03T06:00:13;3.90;;;1.63;;
70253;SDS011;57649;42.968;1.608;2023-04-03T06:02:40;4.30;;;1.92;;
70253;SDS011;57649;42.968;1.608;2023-04-03T06:05:07;4.75;;;2.22;;
70253;SDS011;57649;42.968;1.608;2023-04-03T06:07:33;2.85;;;1.40;;
70253;SDS011;57649;42.968;1.608;2023-04-03T06:09:59;4.30;;;1.92;;
70253;SDS011;57649;42.968;1.608;2023-04-03T06:12:25;2.50;;;1.30;;
70253;SDS011;57649;42.968;1.608;2023-04-03T06:14:50;2.38;;;1.48;;
70253;SDS011;57649;42.968;1.608;2023-04-03T06:17:16;2.00;;;1.45;;
70253;SDS011;57649;42.968;1.608;2023-04-03T06:19:43;2.45;;;1.50;;
70253;SDS011;57649;42.968;1.608;2023-04-03T06:22:08;2.33;;;1.80;;
70253;SDS011;57649;42.968;1.608;2023-04-03T06:24:34;2.97;;;1.90;;
70253;SDS011;57649;42.968;1.608;2023-04-03T06:27:00;5.90;;;2.20;;
70253;SDS011;57649;42.968;1.608;2023-04-03T06:29:26;4.25;;;2.60;;
70253;SDS011;57649;42.968;1.608;2023-04-03T06:31:51;3.70;;;2.30;;
70253;SDS011;57649;42.968;1.608;2023-04-03T06:34:17;3.08;;;2.05;;
70253;SDS011;57649;42.968;1.608;2023-04-03T06:36:43;2.15;;;1.60;;
70253;SDS011;57649;42.968;1.608;2023-04-03T06:39:13;3.78;;;1.88;;
70253;SDS011;57649;42.968;1.608;2023-04-03T06:41:40;3.60;;;1.65;;
70253;SDS011;57649;42.968;1.608;2023-04-03T06:44:06;6.47;;;1.80;;
70253;SDS011;57649;42.968;1.608;2023-04-03T06:46:33;3.90;;;1.75;;
70253;SDS011;57649;42.968;1.608;2023-04-03T06:48:58;1.20;;;1.10;;
70253;SDS011;57649;42.968;1.608;2023-04-03T06:51:24;2.28;;;1.42;;
70253;SDS011;57649;42.968;1.608;2023-04-03T06:53:53;2.90;;;1.98;;
70253;SDS011;57649;42.968;1.608;2023-04-03T06:56:20;3.33;;;1.70;;
70253;SDS011;57649;42.968;1.608;2023-04-03T06:58:47;2.50;;;1.60;;
70253;SDS011;57649;42.968;1.608;2023-04-03T07:01:13;1.88;;;1.35;;
70253;SDS011;57649;42.968;1.608;2023-04-03T07:03:40;2.38;;;1.60;;
70253;SDS011;57649;42.968;1.608;2023-04-03T07:06:06;5.57;;;2.17;;
70253;SDS011;57649;42.968;1.608;2023-04-03T07:08:32;2.55;;;1.75;;
70253;SDS011;57649;42.968;1.608;2023-04-03T07:10:58;3.20;;;1.80;;
70253;SDS011;57649;42.968;1.608;2023-04-03T07:13:25;3.22;;;2.00;;
70253;SDS011;57649;42.968;1.608;2023-04-03T07:15:51;5.03;;;3.50;;
70253;SDS011;57649;42.968;1.608;2023-04-03T07:18:17;6.07;;;3.60;;
70253;SDS011;57649;42.968;1.608;2023-04-03T07:20:43;3.65;;;1.92;;
70253;SDS011;57649;42.968;1.608;2023-04-03T07:23:09;2.05;;;1.73;;
70253;SDS011;57649;42.968;1.608;2023-04-03T07:25:34;2.92;;;2.00;;
70253;SDS011;57649;42.968;1.608;2023-04-03T07:28:00;2.83;;;2.03;;
70253;SDS011;57649;42.968;1.608;2023-04-03T07:30:25;5.90;;;2.70;;
70253;SDS011;57649;42.968;1.608;2023-04-03T07:32:51;6.55;;;2.10;;
70253;SDS011;57649;42.968;1.608;2023-04-03T07:35:17;4.10;;;1.85;;
70253;SDS011;57649;42.968;1.608;2023-04-03T07:37:42;2.20;;;1.50;;
70253;SDS011;57649;42.968;1.608;2023-04-03T07:40:08;2.85;;;1.50;;
70253;SDS011;57649;42.968;1.608;2023-04-03T07:42:34;5.45;;;2.00;;
70253;SDS011;57649;42.968;1.608;2023-04-03T07:45:00;1.23;;;1.08;;
70253;SDS011;57649;42.968;1.608;2023-04-03T07:47:26;1.98;;;1.33;;
70253;SDS011;57649;42.968;1.608;2023-04-03T07:49:52;2.25;;;1.52;;
70253;SDS011;57649;42.968;1.608;2023-04-03T07:52:17;2.35;;;1.10;;
70253;SDS011;57649;42.968;1.608;2023-04-03T07:54:43;1.35;;;1.10;;
70253;SDS011;57649;42.968;1.608;2023-04-03T07:57:08;1.70;;;1.10;;
70253;SDS011;57649;42.968;1.608;2023-04-03T07:59:34;2.13;;;1.00;;
70253;SDS011;57649;42.968;1.608;2023-04-03T08:01:59;1.27;;;1.00;;
70253;SDS011;57649;42.968;1.608;2023-04-03T08:04:25;2.92;;;1.00;;
70253;SDS011;57649;42.968;1.608;2023-04-03T08:06:51;1.80;;;1.30;;
70253;SDS011;57649;42.968;1.608;2023-04-03T08:09:17;4.03;;;1.10;;
70253;SDS011;57649;42.968;1.608;2023-04-03T08:11:43;1.73;;;1.10;;
70253;SDS011;57649;42.968;1.608;2023-04-03T08:14:10;1.95;;;1.00;;
70253;SDS011;57649;42.968;1.608;2023-04-03T08:16:40;1.65;;;1.13;;
70253;SDS011;57649;42.968;1.608;2023-04-03T08:19:05;4.80;;;1.45;;
70253;SDS011;57649;42.968;1.608;2023-04-03T08:21:32;2.55;;;1.10;;
70253;SDS011;57649;42.968;1.608;2023-04-03T08:23:58;1.30;;;0.98;;
70253;SDS011;57649;42.968;1.608;2023-04-03T08:26:23;2.50;;;1.02;;
70253;SDS011;57649;42.968;1.608;2023-04-03T08:28:48;1.40;;;0.90;;
70253;SDS011;57649;42.968;1.608;2023-04-03T08:31:15;1.50;;;0.85;;
70253;SDS011;57649;42.968;1.608;2023-04-03T08:33:43;1.30;;;1.00;;
70253;SDS011;57649;42.968;1.608;2023-04-03T08:36:17;1.33;;;0.80;;
70253;SDS011;57649;42.968;1.608;2023-04-03T08:38:47;3.10;;;1.10;;
70253;SDS011;57649;42.968;1.608;2023-04-03T08:41:14;1.75;;;0.90;;
70253;SDS011;57649;42.968;1.608;2023-04-03T08:47:11;1.17;;;0.90;;
70253;SDS011;57649;42.968;1.608;2023-04-03T08:49:28;1.23;;;0.90;;
70253;SDS011;57649;42.968;1.608;2023-04-03T08:51:59;5.65;;;1.40;;
70253;SDS011;57649;42.968;1.608;2023-04-03T08:54:37;1.90;;;1.40;;
70253;SDS011;57649;42.968;1.608;2023-04-03T08:57:14;2.33;;;1.15;;
70253;SDS011;57649;42.968;1.608;2023-04-03T08:59:40;2.97;;;1.33;;
70253;SDS011;57649;42.968;1.608;2023-04-03T09:02:23;1.63;;;1.00;;
70253;SDS011;57649;42.968;1.608;2023-04-03T09:04:56;4.35;;;1.20;;
70253;SDS011;57649;42.968;1.608;2023-04-03T09:10:27;1.48;;;1.00;;
70253;SDS011;57649;42.968;1.608;2023-04-03T09:13:00;1.83;;;1.10;;
70253;SDS011;57649;42.968;1.608;2023-04-03T09:15:32;1.13;;;0.75;;
70253;SDS011;57649;42.968;1.608;2023-04-03T09:20:31;1.08;;;0.80;;
70253;SDS011;57649;42.968;1.608;2023-04-03T09:23:16;1.35;;;0.80;;
70253;SDS011;57649;42.968;1.608;2023-04-03T09:25:46;1.73;;;0.80;;
70253;SDS011;57649;42.968;1.608;2023-04-03T09:28:12;0.85;;;0.73;;
70253;SDS011;57649;42.968;1.608;2023-04-03T09:30:38;2.50;;;1.23;;
70253;SDS011;57649;42.968;1.608;2023-04-03T09:33:03;1.75;;;0.85;;
70253;SDS011;57649;42.968;1.608;2023-04-03T09:38:15;1.25;;;0.80;;
70253;SDS011;57649;42.968;1.608;2023-04-03T09:40:44;2.58;;;1.00;;
70253;SDS011;57649;42.968;1.608;2023-04-03T09:45:41;1.85;;;0.90;;
70253;SDS011;57649;42.968;1.608;2023-04-03T09:50:34;1.08;;;0.90;;
70253;SDS011;57649;42.968;1.608;2023-04-03T09:53:05;2.25;;;0.85;;
70253;SDS011;57649;42.968;1.608;2023-04-03T09:55:32;0.93;;;0.80;;
70253;SDS011;57649;42.968;1.608;2023-04-03T09:58:22;2.33;;;0.80;;
70253;SDS011;57649;42.968;1.608;2023-04-03T10:00:54;0.95;;;0.77;;
70253;SDS011;57649;42.968;1.608;2023-04-03T10:03:25;1.50;;;0.73;;
70253;SDS011;57649;42.968;1.608;2023-04-03T10:05:57;2.42;;;0.80;;
70253;SDS011;57649;42.968;1.608;2023-04-03T10:08:33;1.75;;;0.98;;
70253;SDS011;57649;42.968;1.608;2023-04-03T10:11:07;2.67;;;1.48;;
70253;SDS011;57649;42.968;1.608;2023-04-03T10:13:51;1.63;;;1.30;;
70253;SDS011;57649;42.968;1.608;2023-04-03T10:16:21;1.17;;;1.00;;
70253;SDS011;57649;42.968;1.608;2023-04-03T10:27:21;4.15;;;2.58;;
70253;SDS011;57649;42.968;1.608;2023-04-03T10:29:59;4.03;;;1.90;;
70253;SDS011;57649;42.968;1.608;2023-04-03T10:32:32;2.17;;;1.30;;
70253;SDS011;57649;42.968;1.608;2023-04-03T10:45:49;3.42;;;2.25;;
70253;SDS011;57649;42.968;1.608;2023-04-03T10:51:06;2.50;;;2.00;;
70253;SDS011;57649;42.968;1.608;2023-04-03T10:58:58;2.65;;;1.30;;
70253;SDS011;57649;42.968;1.608;2023-04-03T11:01:33;1.63;;;1.20;;
70253;SDS011;57649;42.968;1.608;2023-04-03T11:06:33;2.22;;;1.52;;
70253;SDS011;57649;42.968;1.608;2023-04-03T11:09:26;2.13;;;1.48;;
70253;SDS011;57649;42.968;1.608;2023-04-03T11:11:55;3.97;;;1.20;;
70253;SDS011;57649;42.968;1.608;2023-04-03T11:14:28;1.80;;;1.20;;
70253;SDS011;57649;42.968;1.608;2023-04-03T11:17:02;2.92;;;1.23;;
70253;SDS011;57649;42.968;1.608;2023-04-03T11:22:36;2.08;;;1.60;;
70253;SDS011;57649;42.968;1.608;2023-04-03T11:27:44;2.67;;;1.80;;
70253;SDS011;57649;42.968;1.608;2023-04-03T11:30:25;2.85;;;1.67;;
70253;SDS011;57649;42.968;1.608;2023-04-03T11:35:21;2.33;;;1.10;;
70253;SDS011;57649;42.968;1.608;2023-04-03T11:37:52;2.25;;;1.60;;
70253;SDS011;57649;42.968;1.608;2023-04-03T11:40:24;1.83;;;1.17;;
70253;SDS011;57649;42.968;1.608;2023-04-03T11:42:53;1.42;;;1.15;;
70253;SDS011;57649;42.968;1.608;2023-04-03T11:45:31;2.65;;;1.20;;
70253;SDS011;57649;42.968;1.608;2023-04-03T11:50:56;1.10;;;0.90;;
70253;SDS011;57649;42.968;1.608;2023-04-03T11:53:51;2.03;;;0.88;;
70253;SDS011;57649;42.968;1.608;2023-04-03T12:01:46;1.05;;;0.90;;
70253;SDS011;57649;42.968;1.608;2023-04-03T12:04:13;2.97;;;1.77;;
70253;SDS011;57649;42.968;1.608;2023-04-03T12:06:43;2.70;;;1.33;;
70253;SDS011;57649;42.968;1.608;2023-04-03T12:11:52;1.98;;;1.27;;
70253;SDS011;57649;42.968;1.608;2023-04-03T12:14:22;2.03;;;1.30;;
70253;SDS011;57649;42.968;1.608;2023-04-03T12:16:50;2.15;;;1.30;;
70253;SDS011;57649;42.968;1.608;2023-04-03T12:19:34;1.55;;;1.20;;
70253;SDS011;57649;42.968;1.608;2023-04-03T12:22:06;3.05;;;1.65;;
70253;SDS011;57649;42.968;1.608;2023-04-03T12:24:34;1.50;;;0.90;;
70253;SDS011;57649;42.968;1.608;2023-04-03T12:29:43;2.70;;;2.03;;
70253;SDS011;57649;42.968;1.608;2023-04-03T12:32:36;1.67;;;1.00;;
70253;SDS011;57649;42.968;1.608;2023-04-03T12:54:04;1.80;;;1.40;;
70253;SDS011;57649;42.968;1.608;2023-04-03T12:56:38;1.58;;;0.98;;
70253;SDS011;57649;42.968;1.608;2023-04-03T12:59:23;1.27;;;0.85;;
70253;SDS011;57649;42.968;1.608;2023-04-03T13:01:54;1.67;;;1.08;;
70253;SDS011;57649;42.968;1.608;2023-04-03T13:04:26;1.70;;;1.23;;
70253;SDS011;57649;42.968;1.608;2023-04-03T13:06:53;2.40;;;1.80;;
70253;SDS011;57649;42.968;1.608;2023-04-03T13:11:48;2.58;;;0.80;;
70253;SDS011;57649;42.968;1.608;2023-04-03T13:14:20;0.98;;;0.80;;
70253;SDS011;57649;42.968;1.608;2023-04-03T13:16:57;3.67;;;1.27;;
70253;SDS011;57649;42.968;1.608;2023-04-03T13:19:25;2.53;;;1.50;;
70253;SDS011;57649;42.968;1.608;2023-04-03T13:25:08;2.88;;;1.95;;
70253;SDS011;57649;42.968;1.608;2023-04-03T13:27:36;2.28;;;1.58;;
70253;SDS011;57649;42.968;1.608;2023-04-03T13:30:04;3.90;;;1.73;;
70253;SDS011;57649;42.968;1.608;2023-04-03T13:32:31;1.50;;;0.90;;
70253;SDS011;57649;42.968;1.608;2023-04-03T13:34:57;1.70;;;1.17;;
70253;SDS011;57649;42.968;1.608;2023-04-03T13:37:27;2.25;;;0.95;;
70253;SDS011;57649;42.968;1.608;2023-04-03T13:42:33;3.38;;;1.55;;
70253;SDS011;57649;42.968;1.608;2023-04-03T13:47:49;2.17;;;1.20;;
70253;SDS011;57649;42.968;1.608;2023-04-03T13:53:03;2.05;;;0.90;;
70253;SDS011;57649;42.968;1.608;2023-04-03T13:55:39;1.40;;;1.10;;
70253;SDS011;57649;42.968;1.608;2023-04-03T13:58:26;2.20;;;1.10;;
70253;SDS011;57649;42.968;1.608;2023-04-03T14:05:49;1.52;;;0.85;;
70253;SDS011;57649;42.968;1.608;2023-04-03T14:08:15;1.63;;;1.00;;
70253;SDS011;57649;42.968;1.608;2023-04-03T14:10:41;1.80;;;1.20;;
70253;SDS011;57649;42.968;1.608;2023-04-03T14:13:08;4.57;;;1.63;;
70253;SDS011;57649;42.968;1.608;2023-04-03T14:15:41;1.92;;;1.05;;
70253;SDS011;57649;42.968;1.608;2023-04-03T14:18:10;2.53;;;1.25;;
70253;SDS011;57649;42.968;1.608;2023-04-03T14:20:37;2.13;;;1.08;;
70253;SDS011;57649;42.968;1.608;2023-04-03T14:23:02;3.83;;;1.00;;
70253;SDS011;57649;42.968;1.608;2023-04-03T14:25:28;3.40;;;1.40;;
70253;SDS011;57649;42.968;1.608;2023-04-03T14:27:53;2.40;;;1.27;;
70253;SDS011;57649;42.968;1.608;2023-04-03T14:30:26;2.30;;;1.25;;
70253;SDS011;57649;42.968;1.608;2023-04-03T14:32:53;1.48;;;0.80;;
70253;SDS011;57649;42.968;1.608;2023-04-03T14:35:19;2.35;;;1.30;;
70253;SDS011;57649;42.968;1.608;2023-04-03T14:37:46;1.95;;;1.00;;
70253;SDS011;57649;42.968;1.608;2023-04-03T14:40:17;2.22;;;1.70;;
70253;SDS011;57649;42.968;1.608;2023-04-03T14:42:46;2.65;;;1.10;;
70253;SDS011;57649;42.968;1.608;2023-04-03T14:45:13;1.70;;;1.17;;
70253;SDS011;57649;42.968;1.608;2023-04-03T14:47:40;3.28;;;1.20;;
70253;SDS011;57649;42.968;1.608;2023-04-03T14:50:12;1.90;;;1.33;;
70253;SDS011;57649;42.968;1.608;2023-04-03T14:52:40;2.03;;;1.13;;
70253;SDS011;57649;42.968;1.608;2023-04-03T14:55:06;1.65;;;1.13;;
70253;SDS011;57649;42.968;1.608;2023-04-03T14:57:32;2.40;;;1.55;;
70253;SDS011;57649;42.968;1.608;2023-04-03T14:59:57;1.40;;;1.10;;
70253;SDS011;57649;42.968;1.608;2023-04-03T15:02:25;1.60;;;1.20;;
70253;SDS011;57649;42.968;1.608;2023-04-03T15:05:02;1.95;;;1.27;;
70253;SDS011;57649;42.968;1.608;2023-04-03T15:07:31;3.93;;;1.37;;
70253;SDS011;57649;42.968;1.608;2023-04-03T15:10:05;2.95;;;1.40;;
70253;SDS011;57649;42.968;1.608;2023-04-03T15:12:52;2.45;;;1.40;;
70253;SDS011;57649;42.968;1.608;2023-04-03T15:15:18;3.22;;;1.35;;
70253;SDS011;57649;42.968;1.608;2023-04-03T15:17:45;3.42;;;1.80;;
70253;SDS011;57649;42.968;1.608;2023-04-03T15:20:17;1.58;;;1.25;;
70253;SDS011;57649;42.968;1.608;2023-04-03T15:22:44;1.90;;;1.20;;
70253;SDS011;57649;42.968;1.608;2023-04-03T15:25:10;3.00;;;1.73;;
70253;SDS011;57649;42.968;1.608;2023-04-03T15:27:36;1.27;;;0.90;;
70253;SDS011;57649;42.968;1.608;2023-04-03T15:30:03;3.25;;;1.20;;
70253;SDS011;57649;42.968;1.608;2023-04-03T15:32:30;2.72;;;1.10;;
70253;SDS011;57649;42.968;1.608;2023-04-03T15:34:55;3.45;;;1.48;;
70253;SDS011;57649;42.968;1.608;2023-04-03T15:37:21;3.10;;;1.67;;
70253;SDS011;57649;42.968;1.608;2023-04-03T15:39:46;2.88;;;1.50;;
70253;SDS011;57649;42.968;1.608;2023-04-03T15:42:12;3.85;;;2.70;;
70253;SDS011;57649;42.968;1.608;2023-04-03T15:44:37;10.60;;;5.30;;
70253;SDS011;57649;42.968;1.608;2023-04-03T15:47:03;4.30;;;3.08;;
70253;SDS011;57649;42.968;1.608;2023-04-03T15:49:29;3.95;;;2.92;;
70253;SDS011;57649;42.968;1.608;2023-04-03T15:51:57;4.70;;;2.85;;
70253;SDS011;57649;42.968;1.608;2023-04-03T15:54:22;2.78;;;2.10;;
70253;SDS011;57649;42.968;1.608;2023-04-03T15:56:48;6.53;;;2.97;;
70253;SDS011;57649;42.968;1.608;2023-04-03T15:59:14;3.40;;;2.70;;
70253;SDS011;57649;42.968;1.608;2023-04-03T16:01:40;4.63;;;3.10;;
70253;SDS011;57649;42.968;1.608;2023-04-03T16:04:07;4.32;;;2.03;;
70253;SDS011;57649;42.968;1.608;2023-04-03T16:06:33;6.97;;;5.75;;
70253;SDS011;57649;42.968;1.608;2023-04-03T16:08:59;2.72;;;1.77;;
70253;SDS011;57649;42.968;1.608;2023-04-03T16:11:26;4.70;;;3.42;;
70253;SDS011;57649;42.968;1.608;2023-04-03T16:13:52;2.28;;;1.50;;
70253;SDS011;57649;42.968;1.608;2023-04-03T16:16:18;3.97;;;1.60;;
70253;SDS011;57649;42.968;1.608;2023-04-03T16:18:43;2.72;;;1.92;;
70253;SDS011;57649;42.968;1.608;2023-04-03T16:21:09;2.50;;;1.38;;
70253;SDS011;57649;42.968;1.608;2023-04-03T16:23:34;3.65;;;1.50;;
70253;SDS011;57649;42.968;1.608;2023-04-03T16:26:00;2.60;;;1.75;;
70253;SDS011;57649;42.968;1.608;2023-04-03T16:28:26;3.10;;;2.40;;
70253;SDS011;57649;42.968;1.608;2023-04-03T16:30:51;2.72;;;1.40;;
70253;SDS011;57649;42.968;1.608;2023-04-03T16:33:17;2.70;;;1.70;;
70253;SDS011;57649;42.968;1.608;2023-04-03T16:35:46;6.30;;;3.60;;
70253;SDS011;57649;42.968;1.608;2023-04-03T16:38:13;7.97;;;4.30;;
70253;SDS011;57649;42.968;1.608;2023-04-03T16:40:39;5.00;;;2.60;;
70253;SDS011;57649;42.968;1.608;2023-04-03T16:43:05;3.63;;;2.03;;
70253;SDS011;57649;42.968;1.608;2023-04-03T16:45:30;3.28;;;1.85;;